Carbonear, Canada
Current Conditions -  °F | °C
As of 1:00 AM on Sunday 21 Dec 2014 (Local Time) from CYYT Reporting Station
Overcast Overcast  
Wind Chill: -8°   Ceiling: 2900
Heat Index: -1°   Visibility: 15mi
Dew Point: -4°   Wind: 17mph
Humidity: 80%   Direction: 30°NNE
Pressure: 30.18"   Gusts: 25mph
Location:  47.73°N, 53.25°W
Report Text: CYYT 210400Z 03015G22KT 15SM OVC029 M01/M04 A3018 RMK SC8 SLP227
Loading
Personal Weather Stations






























Interactive Weather Map New forecast layout! Learn more

10-Day Weather Forecast

Advertisements
Track Severe Weather on mobile